Time;durP1;ratioP1;P1;durP2;ratioP2;P2;SDS_P1;SDS_P2;PMS_P1;PMS_P2;Temp;Humidity;BMP_temperature;BMP_pressure;BME280_temperature;BME280_humidity;BME280_pressure;Samples;Min_cycle;Max_cycle;Signal;HPM_P1;HPM_P2
2023/12/16 00:07:42;;;;;;;39.95;16.90;;;;;;;;;;10313702;23;20270;-85
2023/12/16 00:11:45;;;;;;;39.60;17.92;;;;;;;;;;8365341;28;20047;-83
2023/12/16 01:23:43;;;;;;;40.22;15.82;;;;;;;;;;9209677;22;20129;-83
2023/12/16 04:26:42;;;;;;;42.30;14.02;;;;;;;;;;8452560;22;20044;-84
2023/12/16 04:30:45;;;;;;;39.78;14.82;;;;;;;;;;8391968;28;20072;-92
2023/12/16 04:34:48;;;;;;;64.80;23.23;;;;;;;;;;8401368;28;20105;-85
2023/12/16 04:38:51;;;;;;;48.97;18.98;;;;;;;;;;8398396;28;20052;-83
2023/12/16 04:42:55;;;;;;;46.55;13.45;;;;;;;;;;8380120;28;20128;-86
2023/12/16 04:46:58;;;;;;;48.22;16.27;;;;;;;;;;8345895;28;20164;-85
2023/12/16 04:51:05;;;;;;;37.00;14.30;;;;;;;;;;8358064;28;20059;-84
2023/12/16 04:55:10;;;;;;;41.22;15.95;;;;;;;;;;8345392;28;20053;-84
2023/12/16 04:59:15;;;;;;;50.40;15.65;;;;;;;;;;8395329;28;20486;-83
2023/12/16 05:03:18;;;;;;;53.17;17.08;;;;;;;;;;8392804;28;20392;-84
2023/12/16 05:07:21;;;;;;;51.88;15.68;;;;;;;;;;8349743;28;20049;-83
2023/12/16 05:11:28;;;;;;;58.00;16.38;;;;;;;;;;8434661;22;20052;-84
2023/12/16 05:15:32;;;;;;;44.65;15.38;;;;;;;;;;8429438;28;20040;-83
2023/12/16 05:19:35;;;;;;;44.10;16.17;;;;;;;;;;8429610;28;20068;-83
2023/12/16 05:40:21;;;;;;;63.53;23.75;;;;;;;;;;9120537;22;20583;-83
2023/12/16 05:44:24;;;;;;;47.47;14.65;;;;;;;;;;8432356;22;20123;-83
2023/12/16 05:56:48;;;;;;;41.38;13.52;;;;;;;;;;10034396;22;20080;-84
2023/12/16 06:00:51;;;;;;;57.10;17.83;;;;;;;;;;8396458;28;20083;-84
2023/12/16 06:04:54;;;;;;;57.25;16.50;;;;;;;;;;8396747;28;20123;-85
2023/12/16 06:08:57;;;;;;;55.88;15.85;;;;;;;;;;8394835;28;20442;-84
2023/12/16 06:33:43;;;;;;;59.20;17.27;;;;;;;;;;8970925;22;20135;-84
2023/12/16 06:37:46;;;;;;;67.50;16.27;;;;;;;;;;8408930;28;20123;-84
2023/12/16 06:41:48;;;;;;;64.60;18.25;;;;;;;;;;8425260;28;20040;-83
2023/12/16 06:45:53;;;;;;;75.90;17.88;;;;;;;;;;8433645;28;20389;-84
2023/12/16 06:49:58;;;;;;;78.43;22.27;;;;;;;;;;8434213;28;20046;-83
2023/12/16 06:54:01;;;;;;;77.55;22.52;;;;;;;;;;8433260;28;20044;-83
2023/12/16 06:58:06;;;;;;;75.40;22.27;;;;;;;;;;8414771;28;20450;-83
2023/12/16 07:02:12;;;;;;;56.55;18.13;;;;;;;;;;8414717;28;20208;-84
2023/12/16 07:06:20;;;;;;;72.75;22.33;;;;;;;;;;8415276;28;20078;-83
2023/12/16 07:10:23;;;;;;;71.72;21.13;;;;;;;;;;8414657;28;20143;-84
2023/12/16 07:14:28;;;;;;;130.13;38.17;;;;;;;;;;8414450;28;20117;-84
2023/12/16 07:18:32;;;;;;;135.88;40.67;;;;;;;;;;8381859;28;20052;-83
2023/12/16 07:22:36;;;;;;;81.93;24.55;;;;;;;;;;8399254;28;20071;-83
2023/12/16 07:26:39;;;;;;;85.07;23.05;;;;;;;;;;8382339;28;20480;-83
2023/12/16 07:30:43;;;;;;;69.63;21.50;;;;;;;;;;8414156;28;20097;-82
2023/12/16 07:34:46;;;;;;;63.22;20.52;;;;;;;;;;8413775;28;20515;-84
2023/12/16 07:38:51;;;;;;;54.15;17.90;;;;;;;;;;8415289;28;20135;-83
2023/12/16 07:42:53;;;;;;;60.92;22.05;;;;;;;;;;8431948;28;20047;-84
2023/12/16 08:07:39;;;;;;;66.93;18.25;;;;;;;;;;8500019;22;20135;-85
2023/12/16 08:11:42;;;;;;;53.05;17.33;;;;;;;;;;8411767;28;20190;-83
2023/12/16 08:15:47;;;;;;;59.97;17.17;;;;;;;;;;8380949;28;20057;-83
2023/12/16 08:19:56;;;;;;;70.45;21.15;;;;;;;;;;8392372;28;20056;-82
2023/12/16 08:24:03;;;;;;;73.25;20.92;;;;;;;;;;8381279;28;20052;-83
2023/12/16 08:28:09;;;;;;;63.17;18.95;;;;;;;;;;8380432;28;20056;-88
2023/12/16 08:32:12;;;;;;;55.15;17.38;;;;;;;;;;8380953;28;20127;-84
2023/12/16 08:36:16;;;;;;;59.17;19.83;;;;;;;;;;8397825;28;20052;-83
2023/12/16 08:40:21;;;;;;;64.55;20.25;;;;;;;;;;8425891;22;20052;-83
2023/12/16 08:44:26;;;;;;;60.22;19.02;;;;;;;;;;8433260;28;20046;-84
2023/12/16 08:48:31;;;;;;;62.72;16.95;;;;;;;;;;8432024;28;20044;-84
2023/12/16 08:52:34;;;;;;;49.97;15.95;;;;;;;;;;8432314;28;20043;-84
2023/12/16 08:56:39;;;;;;;75.72;23.10;;;;;;;;;;8432818;28;20547;-83
2023/12/16 09:00:42;;;;;;;49.47;16.85;;;;;;;;;;8414292;28;20052;-85
2023/12/16 09:04:45;;;;;;;59.75;17.48;;;;;;;;;;8429108;28;20072;-87
2023/12/16 09:13:24;;;;;;;58.88;18.67;;;;;;;;;;8415890;28;20050;-86
2023/12/16 09:27:18;;;;;;;51.10;17.58;;;;;;;;;;8471663;22;20015;-84
2023/12/16 09:31:23;;;;;;;48.38;12.98;;;;;;;;;;8376856;28;20056;-84
2023/12/16 09:35:29;;;;;;;50.42;15.65;;;;;;;;;;8387943;28;20049;-85
2023/12/16 09:39:32;;;;;;;45.63;15.48;;;;;;;;;;8379123;28;20415;-83
2023/12/16 09:43:37;;;;;;;47.85;17.88;;;;;;;;;;8403981;22;20688;-85
2023/12/16 09:47:43;;;;;;;43.08;16.52;;;;;;;;;;8409085;28;20082;-85
2023/12/16 09:51:49;;;;;;;41.80;16.58;;;;;;;;;;8426594;28;20425;-84
2023/12/16 10:00:04;;;;;;;40.65;14.38;;;;;;;;;;9323077;22;20134;-83
2023/12/16 10:04:10;;;;;;;51.10;16.05;;;;;;;;;;8435553;28;20051;-84
2023/12/16 10:08:13;;;;;;;41.55;14.20;;;;;;;;;;8417654;28;20097;-84
2023/12/16 10:12:18;;;;;;;50.22;16.55;;;;;;;;;;8416819;28;20043;-84
2023/12/16 10:16:22;;;;;;;46.88;14.98;;;;;;;;;;8417220;28;20048;-84
2023/12/16 10:20:27;;;;;;;48.38;19.30;;;;;;;;;;9613291;22;20567;-83
2023/12/16 10:24:29;;;;;;;44.28;14.73;;;;;;;;;;8415964;28;20074;-84
2023/12/16 10:28:33;;;;;;;48.03;16.92;;;;;;;;;;8434562;28;20075;-85
2023/12/16 10:32:39;;;;;;;39.65;13.13;;;;;;;;;;8434193;28;20424;-84
2023/12/16 10:36:44;;;;;;;46.30;14.90;;;;;;;;;;8416114;28;20044;-85
2023/12/16 10:45:22;;;;;;;57.15;19.27;;;;;;;;;;8297310;28;20077;-84
2023/12/16 10:49:29;;;;;;;64.57;22.30;;;;;;;;;;8409499;28;20078;-85
2023/12/16 10:53:50;;;;;;;36.50;15.15;;;;;;;;;;8402984;28;20046;-86
2023/12/16 10:58:03;;;;;;;54.92;18.00;;;;;;;;;;8408007;28;20044;-86
2023/12/16 11:02:11;;;;;;;62.72;21.17;;;;;;;;;;8426881;28;20427;-85
2023/12/16 11:06:19;;;;;;;50.45;23.38;;;;;;;;;;8432944;28;20728;-86
2023/12/16 11:10:24;;;;;;;35.67;15.10;;;;;;;;;;8432004;28;20131;-86
2023/12/16 11:14:28;;;;;;;49.83;16.40;;;;;;;;;;8432855;28;20078;-85
2023/12/16 11:18:33;;;;;;;62.60;20.63;;;;;;;;;;8432628;28;20048;-86
2023/12/16 11:22:46;;;;;;;66.80;21.65;;;;;;;;;;8432587;28;20060;-87
2023/12/16 11:26:52;;;;;;;38.35;15.27;;;;;;;;;;8432871;28;20509;-86
2023/12/16 11:30:58;;;;;;;54.88;22.05;;;;;;;;;;8432196;28;20048;-86
2023/12/16 11:35:05;;;;;;;44.13;17.20;;;;;;;;;;8432311;28;20146;-87
2023/12/16 11:39:36;;;;;;;34.15;15.60;;;;;;;;;;8413578;28;20139;-87
2023/12/16 11:43:54;;;;;;;69.35;24.60;;;;;;;;;;8398491;28;20048;-86
2023/12/16 11:47:58;;;;;;;52.13;21.80;;;;;;;;;;8398352;28;20067;-86
2023/12/16 11:52:02;;;;;;;53.13;20.95;;;;;;;;;;8398074;28;20044;-87
2023/12/16 11:56:06;;;;;;;43.58;18.10;;;;;;;;;;8399388;28;20138;-87
2023/12/16 12:00:13;;;;;;;61.70;22.40;;;;;;;;;;8403972;28;20045;-87
2023/12/16 12:04:17;;;;;;;46.03;18.95;;;;;;;;;;8397501;28;20131;-88
2023/12/16 12:08:20;;;;;;;47.85;18.50;;;;;;;;;;8379966;28;20052;-86
2023/12/16 12:12:23;;;;;;;22.65;10.68;;;;;;;;;;8397624;28;20481;-86
2023/12/16 12:16:29;;;;;;;68.85;24.88;;;;;;;;;;8397250;28;20123;-87
2023/12/16 12:20:33;;;;;;;41.70;16.17;;;;;;;;;;8401023;28;20500;-86
2023/12/16 12:24:36;;;;;;;41.42;18.73;;;;;;;;;;8420849;28;20044;-86
2023/12/16 12:28:39;;;;;;;50.30;19.45;;;;;;;;;;8429408;28;20048;-86
2023/12/16 12:32:56;;;;;;;49.30;19.85;;;;;;;;;;8429736;28;20055;-85
2023/12/16 12:36:58;;;;;;;56.42;23.38;;;;;;;;;;8423660;28;20131;-84
2023/12/16 12:41:03;;;;;;;59.22;26.55;;;;;;;;;;8430080;28;20044;-85
2023/12/16 12:45:07;;;;;;;49.05;21.05;;;;;;;;;;8420198;28;20044;-86
2023/12/16 12:49:12;;;;;;;65.65;27.80;;;;;;;;;;8418827;28;20416;-85
2023/12/16 12:53:19;;;;;;;61.20;23.80;;;;;;;;;;8405524;28;20052;-85
2023/12/16 12:57:22;;;;;;;41.67;18.20;;;;;;;;;;8396618;28;20045;-85
2023/12/16 13:01:25;;;;;;;38.45;16.38;;;;;;;;;;8397983;28;20109;-84
2023/12/16 13:05:29;;;;;;;39.55;18.63;;;;;;;;;;8424572;28;20118;-85
2023/12/16 13:09:32;;;;;;;41.08;17.15;;;;;;;;;;8424793;28;20131;-85
2023/12/16 13:13:35;;;;;;;47.20;19.88;;;;;;;;;;8425857;28;20036;-86
2023/12/16 13:17:38;;;;;;;40.13;19.27;;;;;;;;;;8427602;28;20054;-84
2023/12/16 13:21:42;;;;;;;45.85;20.38;;;;;;;;;;8425993;28;20055;-85
2023/12/16 13:25:45;;;;;;;55.15;22.80;;;;;;;;;;8426391;28;20044;-85
2023/12/16 13:29:51;;;;;;;43.22;22.40;;;;;;;;;;8426829;28;20048;-86
2023/12/16 13:33:54;;;;;;;45.30;19.95;;;;;;;;;;8413153;28;20063;-85
2023/12/16 13:37:58;;;;;;;43.00;18.45;;;;;;;;;;8435517;28;20104;-85
2023/12/16 13:42:01;;;;;;;44.35;19.92;;;;;;;;;;8435436;28;20048;-84
2023/12/16 13:46:13;;;;;;;83.35;33.60;;;;;;;;;;8418129;28;20064;-85
2023/12/16 13:50:19;;;;;;;67.22;27.98;;;;;;;;;;8424272;28;20053;-85
2023/12/16 13:54:23;;;;;;;55.92;25.45;;;;;;;;;;8401775;28;20132;-85
2023/12/16 13:58:27;;;;;;;59.70;23.17;;;;;;;;;;8401861;28;20381;-86
2023/12/16 14:02:30;;;;;;;39.20;18.17;;;;;;;;;;8384307;28;20083;-84
2023/12/16 14:06:33;;;;;;;54.22;23.30;;;;;;;;;;8401209;28;20110;-84
2023/12/16 14:10:37;;;;;;;84.72;30.48;;;;;;;;;;8401310;28;20037;-85
2023/12/16 14:14:40;;;;;;;79.15;29.05;;;;;;;;;;8416659;28;20480;-85
2023/12/16 14:18:43;;;;;;;84.95;32.30;;;;;;;;;;8429429;28;20082;-85
2023/12/16 14:22:49;;;;;;;50.55;22.95;;;;;;;;;;8432769;28;20079;-85
2023/12/16 14:26:53;;;;;;;72.00;23.50;;;;;;;;;;8424238;28;20052;-84
2023/12/16 14:30:56;;;;;;;41.40;17.75;;;;;;;;;;8430039;28;20047;-84
2023/12/16 14:35:00;;;;;;;37.55;15.80;;;;;;;;;;8432812;28;20415;-85
2023/12/16 14:39:05;;;;;;;35.65;16.27;;;;;;;;;;8433617;28;20097;-85
2023/12/16 14:43:37;;;;;;;33.00;15.20;;;;;;;;;;8442105;28;20079;-93
2023/12/16 14:47:56;;;;;;;45.63;20.48;;;;;;;;;;8384851;28;20052;-92
2023/12/16 14:52:01;;;;;;;79.22;25.33;;;;;;;;;;8419053;28;20044;-93
2023/12/16 14:56:04;;;;;;;41.17;17.70;;;;;;;;;;8416959;28;20105;-92
2023/12/16 15:00:11;;;;;;;48.92;21.50;;;;;;;;;;8435874;28;20054;-92
2023/12/16 15:04:15;;;;;;;34.72;16.23;;;;;;;;;;8435423;28;20483;-93
2023/12/16 15:08:19;;;;;;;49.63;20.45;;;;;;;;;;8434560;28;20052;-92
2023/12/16 15:12:27;;;;;;;49.00;20.27;;;;;;;;;;8434421;28;20054;-93
2023/12/16 15:16:32;;;;;;;52.30;20.67;;;;;;;;;;8434374;28;20068;-92
2023/12/16 15:20:35;;;;;;;59.25;19.20;;;;;;;;;;8434040;28;20143;-92
2023/12/16 15:24:43;;;;;;;43.70;18.85;;;;;;;;;;8433926;28;20391;-92
2023/12/16 15:28:46;;;;;;;34.05;15.48;;;;;;;;;;8433485;28;20047;-92
2023/12/16 15:32:53;;;;;;;104.32;31.55;;;;;;;;;;8434132;28;20060;-93
2023/12/16 15:36:58;;;;;;;65.63;24.23;;;;;;;;;;8415731;28;20051;-93
2023/12/16 15:41:01;;;;;;;51.05;23.42;;;;;;;;;;8433647;28;20044;-92
2023/12/16 15:45:04;;;;;;;49.22;20.05;;;;;;;;;;8433656;28;20044;-92
2023/12/16 15:49:10;;;;;;;86.47;27.60;;;;;;;;;;8415708;28;20052;-92
2023/12/16 15:53:13;;;;;;;39.72;17.45;;;;;;;;;;8415652;28;20044;-92
2023/12/16 15:57:17;;;;;;;46.53;20.95;;;;;;;;;;8431957;28;20115;-93
2023/12/16 16:01:23;;;;;;;49.05;19.30;;;;;;;;;;8432587;28;20055;-92
2023/12/16 16:05:29;;;;;;;43.47;17.13;;;;;;;;;;8432015;28;20483;-92
2023/12/16 16:09:32;;;;;;;34.78;15.23;;;;;;;;;;8414223;28;20048;-91
2023/12/16 16:13:42;;;;;;;74.78;24.30;;;;;;;;;;8432644;28;20423;-91
2023/12/16 16:17:45;;;;;;;44.38;19.13;;;;;;;;;;8432013;28;20063;-91
2023/12/16 16:21:52;;;;;;;42.55;18.15;;;;;;;;;;8431699;28;20056;-92
2023/12/16 16:25:55;;;;;;;38.17;17.48;;;;;;;;;;8431754;28;20078;-93
2023/12/16 16:29:58;;;;;;;36.95;17.25;;;;;;;;;;8413749;28;20403;-92
2023/12/16 16:34:03;;;;;;;43.50;17.83;;;;;;;;;;8413855;28;20047;-92
2023/12/16 16:38:08;;;;;;;48.72;22.13;;;;;;;;;;8431045;28;20058;-91
2023/12/16 16:42:17;;;;;;;41.65;17.38;;;;;;;;;;8412835;28;20056;-93
2023/12/16 16:46:21;;;;;;;47.80;20.25;;;;;;;;;;8430993;28;20444;-91
2023/12/16 16:50:24;;;;;;;54.35;22.95;;;;;;;;;;8430762;28;20132;-91
2023/12/16 16:54:35;;;;;;;47.13;24.52;;;;;;;;;;8430644;28;20059;-92
2023/12/16 16:58:40;;;;;;;45.53;20.40;;;;;;;;;;8430626;28;20131;-91
2023/12/16 17:03:01;;;;;;;43.20;18.40;;;;;;;;;;8412296;28;20312;-94
2023/12/16 17:08:02;;;;;;;52.72;23.77;;;;;;;;;;8430657;28;20064;-91
2023/12/16 17:12:07;;;;;;;65.38;24.08;;;;;;;;;;8282544;28;20046;-92
2023/12/16 17:16:17;;;;;;;61.28;26.75;;;;;;;;;;8337675;28;20064;-92
2023/12/16 17:20:20;;;;;;;56.50;24.33;;;;;;;;;;8378609;28;20171;-92
2023/12/16 17:24:23;;;;;;;43.85;20.08;;;;;;;;;;8379386;28;20052;-92
2023/12/16 17:28:29;;;;;;;42.83;17.88;;;;;;;;;;8378720;28;20048;-91
2023/12/16 17:32:32;;;;;;;46.42;17.50;;;;;;;;;;8396425;28;20098;-91
2023/12/16 17:36:35;;;;;;;42.75;16.83;;;;;;;;;;8396458;28;20076;-91
2023/12/16 17:40:38;;;;;;;38.97;17.35;;;;;;;;;;8396437;28;20123;-92
2023/12/16 17:44:43;;;;;;;40.10;17.52;;;;;;;;;;8378377;28;20056;-91
2023/12/16 17:48:46;;;;;;;45.67;20.40;;;;;;;;;;8396577;28;20121;-92
2023/12/16 17:52:50;;;;;;;41.72;18.25;;;;;;;;;;8396228;28;20074;-92
2023/12/16 17:56:53;;;;;;;37.25;17.00;;;;;;;;;;8396635;28;20523;-93
2023/12/16 18:01:18;;;;;;;33.65;13.80;;;;;;;;;;8381272;28;20051;-93
2023/12/16 18:05:21;;;;;;;34.80;17.60;;;;;;;;;;8397396;28;20060;-92
2023/12/16 18:09:25;;;;;;;37.78;16.60;;;;;;;;;;8396389;28;20412;-92
2023/12/16 18:13:27;;;;;;;38.53;14.80;;;;;;;;;;8378322;28;20049;-91
2023/12/16 18:17:32;;;;;;;34.33;16.58;;;;;;;;;;8395988;28;20044;-92
2023/12/16 18:21:35;;;;;;;37.30;17.05;;;;;;;;;;8399238;28;20064;-92
2023/12/16 18:25:38;;;;;;;48.25;18.85;;;;;;;;;;8402686;28;20412;-91
2023/12/16 18:29:41;;;;;;;38.80;18.48;;;;;;;;;;8402362;28;20428;-94
2023/12/16 18:34:00;;;;;;;36.83;15.52;;;;;;;;;;8391589;28;20094;-92
2023/12/16 18:38:05;;;;;;;22.35;10.88;;;;;;;;;;8384315;28;20111;-91
2023/12/16 18:42:08;;;;;;;40.55;16.15;;;;;;;;;;8401406;28;20044;-92
2023/12/16 18:46:12;;;;;;;39.78;16.30;;;;;;;;;;8401546;28;20052;-92
2023/12/16 18:50:17;;;;;;;31.00;13.65;;;;;;;;;;8401619;28;20098;-91
2023/12/16 18:54:20;;;;;;;41.30;17.33;;;;;;;;;;8399829;28;20045;-92
2023/12/16 18:58:45;;;;;;;48.03;20.67;;;;;;;;;;8401364;28;20060;-92
2023/12/16 19:02:48;;;;;;;57.05;25.63;;;;;;;;;;8393319;28;20060;-92
2023/12/16 19:06:53;;;;;;;59.80;28.90;;;;;;;;;;8383500;28;20052;-92
2023/12/16 19:10:56;;;;;;;67.60;28.42;;;;;;;;;;8382999;28;20059;-91
2023/12/16 19:15:06;;;;;;;41.05;21.40;;;;;;;;;;8400427;28;20052;-91
2023/12/16 19:19:09;;;;;;;32.40;15.82;;;;;;;;;;8400419;28;20052;-92
2023/12/16 19:23:16;;;;;;;29.98;13.35;;;;;;;;;;8400109;28;20060;-91
2023/12/16 19:27:19;;;;;;;58.97;19.50;;;;;;;;;;8400345;28;20439;-92
2023/12/16 19:31:23;;;;;;;29.05;13.80;;;;;;;;;;8400038;28;20067;-92
2023/12/16 19:35:26;;;;;;;40.33;16.65;;;;;;;;;;8400062;28;20507;-92
2023/12/16 19:39:30;;;;;;;68.07;19.77;;;;;;;;;;8399605;28;20510;-92
2023/12/16 19:43:34;;;;;;;74.45;29.42;;;;;;;;;;8381757;28;20060;-92
2023/12/16 19:47:43;;;;;;;35.80;12.98;;;;;;;;;;8399411;28;20044;-92
2023/12/16 19:51:48;;;;;;;54.33;19.27;;;;;;;;;;8399679;28;20484;-91
2023/12/16 19:55:54;;;;;;;29.05;11.80;;;;;;;;;;8381642;28;20452;-91
2023/12/16 19:59:56;;;;;;;41.33;14.07;;;;;;;;;;8380757;28;20048;-92
2023/12/16 20:04:00;;;;;;;36.20;12.45;;;;;;;;;;8398457;28;20154;-91
2023/12/16 20:08:07;;;;;;;34.50;13.98;;;;;;;;;;8398595;28;20041;-91
2023/12/16 20:12:11;;;;;;;42.38;15.10;;;;;;;;;;8398139;28;20044;-92
2023/12/16 20:16:15;;;;;;;34.20;13.43;;;;;;;;;;8398269;28;20048;-91
2023/12/16 20:20:21;;;;;;;30.00;11.98;;;;;;;;;;8397661;28;20060;-92
2023/12/16 20:24:25;;;;;;;31.45;13.75;;;;;;;;;;8397786;28;20052;-93
2023/12/16 20:28:30;;;;;;;35.50;13.23;;;;;;;;;;8397482;28;20064;-92
2023/12/16 20:32:33;;;;;;;23.23;9.40;;;;;;;;;;8397392;28;20048;-91
2023/12/16 20:36:36;;;;;;;23.75;10.57;;;;;;;;;;8397650;28;20094;-92
2023/12/16 20:40:43;;;;;;;23.92;10.70;;;;;;;;;;8397468;28;20113;-92
2023/12/16 20:44:50;;;;;;;;;;;;;;;;;;8379811;28;20106;-91
2023/12/16 20:48:55;;;;;;;15.25;7.68;;;;;;;;;;8397291;28;19962;-92
2023/12/16 20:52:59;;;;;;;20.23;8.68;;;;;;;;;;8397262;28;20686;-92
2023/12/16 20:57:11;;;;;;;32.58;12.68;;;;;;;;;;8397104;28;20056;-92
2023/12/16 21:01:16;;;;;;;24.05;11.10;;;;;;;;;;8378928;28;20056;-92
2023/12/16 21:05:19;;;;;;;26.08;10.20;;;;;;;;;;8397100;28;20041;-91
2023/12/16 21:09:22;;;;;;;19.65;8.55;;;;;;;;;;8396932;28;20480;-91
2023/12/16 21:13:25;;;;;;;26.50;9.02;;;;;;;;;;8396931;28;20052;-94
2023/12/16 21:17:33;;;;;;;21.92;9.73;;;;;;;;;;8397917;28;20056;-91
2023/12/16 21:21:43;;;;;;;22.83;8.90;;;;;;;;;;8396996;28;20067;-91
2023/12/16 21:25:45;;;;;;;18.48;9.68;;;;;;;;;;8378664;28;20052;-91
2023/12/16 21:29:48;;;;;;;16.98;7.55;;;;;;;;;;8396675;28;20127;-91
2023/12/16 21:33:55;;;;;;;24.90;9.25;;;;;;;;;;8378896;28;20511;-91
2023/12/16 21:38:01;;;;;;;16.45;7.78;;;;;;;;;;8396728;28;20067;-91
2023/12/16 21:42:07;;;;;;;12.80;6.95;;;;;;;;;;8396541;28;20530;-91
2023/12/16 21:46:11;;;;;;;19.55;8.10;;;;;;;;;;8396901;28;20048;-92
2023/12/16 21:50:34;;;;;;;21.70;9.23;;;;;;;;;;8396416;28;20087;-93
2023/12/16 21:54:37;;;;;;;20.70;7.60;;;;;;;;;;8398233;28;20139;-91
2023/12/16 21:58:40;;;;;;;18.25;8.35;;;;;;;;;;8402981;28;20055;-93
2023/12/16 22:02:43;;;;;;;17.52;9.40;;;;;;;;;;8402965;28;20040;-92
2023/12/16 22:06:47;;;;;;;20.40;7.93;;;;;;;;;;8402751;28;20075;-92
2023/12/16 22:10:50;;;;;;;12.07;5.25;;;;;;;;;;8402432;28;20075;-93
2023/12/16 22:14:53;;;;;;;23.52;9.25;;;;;;;;;;8398523;28;20052;-92
2023/12/16 22:18:56;;;;;;;25.33;8.05;;;;;;;;;;8402049;28;20090;-92
2023/12/16 22:23:01;;;;;;;17.27;8.30;;;;;;;;;;8402833;28;20052;-91
2023/12/16 22:31:23;;;;;;;18.58;8.73;;;;;;;;;;8400973;28;20056;-92
2023/12/16 22:35:31;;;;;;;19.92;9.02;;;;;;;;;;8401821;28;20545;-94
2023/12/16 22:39:36;;;;;;;21.77;8.73;;;;;;;;;;8401536;28;20121;-92
2023/12/16 22:43:39;;;;;;;16.65;7.95;;;;;;;;;;8401917;28;20048;-92
2023/12/16 22:47:42;;;;;;;21.80;7.40;;;;;;;;;;8401436;28;20177;-92
2023/12/16 22:51:45;;;;;;;20.92;9.13;;;;;;;;;;8401833;28;20076;-93
2023/12/16 22:55:49;;;;;;;21.40;8.88;;;;;;;;;;8400936;28;20132;-92
2023/12/16 22:59:54;;;;;;;26.92;9.57;;;;;;;;;;8401008;28;20044;-92
2023/12/16 23:03:57;;;;;;;25.52;9.63;;;;;;;;;;8400950;28;20048;-93
2023/12/16 23:08:26;;;;;;;23.15;9.10;;;;;;;;;;8400482;28;20114;-92
2023/12/16 23:12:31;;;;;;;25.08;8.70;;;;;;;;;;8398469;28;20445;-93
2023/12/16 23:16:34;;;;;;;19.27;8.80;;;;;;;;;;8400387;28;20048;-91
